sensor_id;sensor_type;location;lat;lon;timestamp;temperature;humidity
66598;DHT22;57424;53.128;6.406;2022-11-20T17:35:16;21.30;47.10
66598;DHT22;57424;53.128;6.406;2022-11-20T17:37:42;21.10;47.60
66598;DHT22;57424;53.128;6.406;2022-11-20T17:40:07;20.90;48.00
66598;DHT22;57424;53.128;6.406;2022-11-20T17:42:33;20.70;48.40
66598;DHT22;57424;53.128;6.406;2022-11-20T17:45:01;20.50;48.70
66598;DHT22;57424;53.128;6.406;2022-11-20T17:47:27;20.40;49.00
66598;DHT22;57424;53.128;6.406;2022-11-20T17:49:52;20.30;49.20
66598;DHT22;57424;53.128;6.406;2022-11-20T17:52:19;20.30;49.50
66598;DHT22;57424;53.128;6.406;2022-11-20T17:54:45;20.20;49.70
66598;DHT22;57424;53.128;6.406;2022-11-20T17:57:10;20.10;49.80
66598;DHT22;57424;53.128;6.406;2022-11-20T17:59:54;20.10;50.00
66598;DHT22;57424;53.128;6.406;2022-11-20T18:02:20;20.10;50.00
66598;DHT22;57424;53.128;6.406;2022-11-20T18:04:46;20.00;50.10
66598;DHT22;57424;53.128;6.406;2022-11-20T18:07:11;20.00;50.10
66598;DHT22;57424;53.128;6.406;2022-11-20T18:09:37;20.00;50.20
66598;DHT22;57424;53.128;6.406;2022-11-20T18:12:02;20.00;50.10
66598;DHT22;57424;53.128;6.406;2022-11-20T18:14:28;20.20;49.90
66598;DHT22;57424;53.128;6.406;2022-11-20T18:17:02;20.50;49.40
66598;DHT22;57424;53.128;6.406;2022-11-20T18:19:31;20.60;48.80
66598;DHT22;57424;53.128;6.406;2022-11-20T18:21:57;20.80;48.40
66598;DHT22;57424;53.128;6.406;2022-11-20T18:24:24;21.10;47.90
66598;DHT22;57424;53.128;6.406;2022-11-20T18:26:49;21.30;47.40
66598;DHT22;57424;53.128;6.406;2022-11-20T18:29:15;21.50;47.00
66598;DHT22;57424;53.128;6.406;2022-11-20T18:31:41;21.60;46.70
66598;DHT22;57424;53.128;6.406;2022-11-20T18:34:07;21.70;46.50
66598;DHT22;57424;53.128;6.406;2022-11-20T18:36:36;21.70;46.40
66598;DHT22;57424;53.128;6.406;2022-11-20T18:39:02;21.70;46.30
66598;DHT22;57424;53.128;6.406;2022-11-20T18:41:29;21.80;46.20
66598;DHT22;57424;53.128;6.406;2022-11-20T18:44:31;21.80;46.20
66598;DHT22;57424;53.128;6.406;2022-11-20T18:49:42;21.60;46.60
66598;DHT22;57424;53.128;6.406;2022-11-20T18:52:11;21.50;46.70
66598;DHT22;57424;53.128;6.406;2022-11-20T18:54:37;21.40;46.80
66598;DHT22;57424;53.128;6.406;2022-11-20T18:57:03;21.40;46.90
66598;DHT22;57424;53.128;6.406;2022-11-20T18:59:29;21.40;46.90
66598;DHT22;57424;53.128;6.406;2022-11-20T19:01:54;21.40;47.00
66598;DHT22;57424;53.128;6.406;2022-11-20T19:04:20;21.50;47.10
66598;DHT22;57424;53.128;6.406;2022-11-20T19:06:46;21.50;46.90
66598;DHT22;57424;53.128;6.406;2022-11-20T19:09:17;21.60;46.90
66598;DHT22;57424;53.128;6.406;2022-11-20T19:11:42;21.70;46.70
66598;DHT22;57424;53.128;6.406;2022-11-20T19:14:08;21.70;46.80
66598;DHT22;57424;53.128;6.406;2022-11-20T19:16:34;21.50;47.00
66598;DHT22;57424;53.128;6.406;2022-11-20T19:19:01;21.30;47.30
66598;DHT22;57424;53.128;6.406;2022-11-20T19:21:27;21.20;47.80
66598;DHT22;57424;53.128;6.406;2022-11-20T19:23:55;21.00;48.00
66598;DHT22;57424;53.128;6.406;2022-11-20T19:26:21;20.80;48.40
66598;DHT22;57424;53.128;6.406;2022-11-20T19:28:47;20.70;48.60
66598;DHT22;57424;53.128;6.406;2022-11-20T19:31:18;20.60;48.90
66598;DHT22;57424;53.128;6.406;2022-11-20T19:33:44;20.50;49.00
66598;DHT22;57424;53.128;6.406;2022-11-20T19:36:13;20.50;49.20
66598;DHT22;57424;53.128;6.406;2022-11-20T19:38:40;20.40;49.40
66598;DHT22;57424;53.128;6.406;2022-11-20T19:41:07;20.30;49.50
66598;DHT22;57424;53.128;6.406;2022-11-20T19:43:34;20.30;49.70
66598;DHT22;57424;53.128;6.406;2022-11-20T19:46:00;20.20;49.80
66598;DHT22;57424;53.128;6.406;2022-11-20T19:48:29;20.20;49.90
66598;DHT22;57424;53.128;6.406;2022-11-20T19:50:55;20.10;50.00
66598;DHT22;57424;53.128;6.406;2022-11-20T19:53:21;20.00;50.10
66598;DHT22;57424;53.128;6.406;2022-11-20T19:55:57;20.00;50.20
66598;DHT22;57424;53.128;6.406;2022-11-20T19:58:23;20.00;50.20
66598;DHT22;57424;53.128;6.406;2022-11-20T20:00:49;19.90;50.40
66598;DHT22;57424;53.128;6.406;2022-11-20T20:03:14;19.90;50.50
66598;DHT22;57424;53.128;6.406;2022-11-20T20:05:40;19.80;50.50
66598;DHT22;57424;53.128;6.406;2022-11-20T20:08:05;19.80;50.60
66598;DHT22;57424;53.128;6.406;2022-11-20T20:10:31;19.80;50.70
66598;DHT22;57424;53.128;6.406;2022-11-20T20:12:56;19.80;50.80
66598;DHT22;57424;53.128;6.406;2022-11-20T20:15:22;19.70;50.80
66598;DHT22;57424;53.128;6.406;2022-11-20T20:17:51;19.70;50.80
66598;DHT22;57424;53.128;6.406;2022-11-20T20:20:17;19.70;51.00
66598;DHT22;57424;53.128;6.406;2022-11-20T20:22:42;19.60;51.00
66598;DHT22;57424;53.128;6.406;2022-11-20T20:25:08;19.60;51.00
66598;DHT22;57424;53.128;6.406;2022-11-20T20:27:33;19.50;51.00
66598;DHT22;57424;53.128;6.406;2022-11-20T20:30:02;19.60;51.10
66598;DHT22;57424;53.128;6.406;2022-11-20T20:32:30;19.50;51.10
66598;DHT22;57424;53.128;6.406;2022-11-20T20:34:55;19.50;51.10
66598;DHT22;57424;53.128;6.406;2022-11-20T20:37:21;19.50;51.30
66598;DHT22;57424;53.128;6.406;2022-11-20T20:39:46;19.50;51.30
66598;DHT22;57424;53.128;6.406;2022-11-20T20:42:12;19.40;51.30
66598;DHT22;57424;53.128;6.406;2022-11-20T20:44:38;19.40;51.30
66598;DHT22;57424;53.128;6.406;2022-11-20T20:47:22;19.40;51.40
66598;DHT22;57424;53.128;6.406;2022-11-20T20:49:47;19.40;51.40
66598;DHT22;57424;53.128;6.406;2022-11-20T20:52:13;19.40;51.50
66598;DHT22;57424;53.128;6.406;2022-11-20T20:54:39;19.40;51.50
66598;DHT22;57424;53.128;6.406;2022-11-20T20:57:06;19.40;51.40
66598;DHT22;57424;53.128;6.406;2022-11-20T20:59:32;19.40;51.60
66598;DHT22;57424;53.128;6.406;2022-11-20T21:01:58;19.40;51.60
66598;DHT22;57424;53.128;6.406;2022-11-20T21:04:23;19.40;51.60
66598;DHT22;57424;53.128;6.406;2022-11-20T21:06:49;19.40;51.60
66598;DHT22;57424;53.128;6.406;2022-11-20T21:09:15;19.40;51.70
66598;DHT22;57424;53.128;6.406;2022-11-20T21:11:40;19.40;51.70
66598;DHT22;57424;53.128;6.406;2022-11-20T21:14:06;19.40;51.80
66598;DHT22;57424;53.128;6.406;2022-11-20T21:16:31;19.40;51.80
66598;DHT22;57424;53.128;6.406;2022-11-20T21:19:05;19.30;51.80
66598;DHT22;57424;53.128;6.406;2022-11-20T21:21:31;19.40;52.40
66598;DHT22;57424;53.128;6.406;2022-11-20T21:24:16;19.40;52.60
66598;DHT22;57424;53.128;6.406;2022-11-20T21:26:41;19.30;52.70
66598;DHT22;57424;53.128;6.406;2022-11-20T21:29:07;19.30;53.20
66598;DHT22;57424;53.128;6.406;2022-11-20T21:31:32;19.40;53.30
66598;DHT22;57424;53.128;6.406;2022-11-20T21:33:58;19.40;53.40
66598;DHT22;57424;53.128;6.406;2022-11-20T21:36:26;19.30;53.40
66598;DHT22;57424;53.128;6.406;2022-11-20T21:38:53;19.30;53.50
66598;DHT22;57424;53.128;6.406;2022-11-20T21:41:19;19.30;53.70
66598;DHT22;57424;53.128;6.406;2022-11-20T21:43:46;19.30;53.90
66598;DHT22;57424;53.128;6.406;2022-11-20T21:46:14;19.30;53.90
66598;DHT22;57424;53.128;6.406;2022-11-20T21:48:42;19.30;54.00
66598;DHT22;57424;53.128;6.406;2022-11-20T21:51:10;19.30;54.00
66598;DHT22;57424;53.128;6.406;2022-11-20T21:53:36;19.30;54.10
66598;DHT22;57424;53.128;6.406;2022-11-20T21:56:03;19.30;54.10
66598;DHT22;57424;53.128;6.406;2022-11-20T21:58:29;19.30;54.10
66598;DHT22;57424;53.128;6.406;2022-11-20T22:00:54;19.30;54.20
66598;DHT22;57424;53.128;6.406;2022-11-20T22:03:20;19.20;54.10
66598;DHT22;57424;53.128;6.406;2022-11-20T22:05:56;19.30;54.20
66598;DHT22;57424;53.128;6.406;2022-11-20T22:08:23;19.20;54.00
66598;DHT22;57424;53.128;6.406;2022-11-20T22:11:00;19.20;54.10
66598;DHT22;57424;53.128;6.406;2022-11-20T22:13:27;19.10;54.10
66598;DHT22;57424;53.128;6.406;2022-11-20T22:16:12;19.10;54.30
66598;DHT22;57424;53.128;6.406;2022-11-20T22:18:49;19.00;54.40
66598;DHT22;57424;53.128;6.406;2022-11-20T22:21:16;19.00;54.40
66598;DHT22;57424;53.128;6.406;2022-11-20T22:23:42;19.00;54.50
66598;DHT22;57424;53.128;6.406;2022-11-20T22:26:10;18.90;54.60
66598;DHT22;57424;53.128;6.406;2022-11-20T22:28:36;18.90;54.60
66598;DHT22;57424;53.128;6.406;2022-11-20T22:31:04;18.90;54.80
66598;DHT22;57424;53.128;6.406;2022-11-20T22:33:31;18.80;54.90
66598;DHT22;57424;53.128;6.406;2022-11-20T22:36:00;18.80;55.00
66598;DHT22;57424;53.128;6.406;2022-11-20T22:38:26;18.80;55.10
66598;DHT22;57424;53.128;6.406;2022-11-20T22:40:51;18.70;55.20
66598;DHT22;57424;53.128;6.406;2022-11-20T22:43:17;18.70;55.40
66598;DHT22;57424;53.128;6.406;2022-11-20T22:45:42;18.70;55.60
66598;DHT22;57424;53.128;6.406;2022-11-20T22:48:10;18.70;55.70
66598;DHT22;57424;53.128;6.406;2022-11-20T22:50:35;18.70;55.90
66598;DHT22;57424;53.128;6.406;2022-11-20T22:53:01;18.60;55.90
66598;DHT22;57424;53.128;6.406;2022-11-20T22:55:26;18.60;56.00
66598;DHT22;57424;53.128;6.406;2022-11-20T22:57:52;18.60;56.10
66598;DHT22;57424;53.128;6.406;2022-11-20T23:00:18;18.50;56.10
66598;DHT22;57424;53.128;6.406;2022-11-20T23:02:44;18.50;56.20
66598;DHT22;57424;53.128;6.406;2022-11-20T23:05:11;18.50;56.20
66598;DHT22;57424;53.128;6.406;2022-11-20T23:07:36;18.50;56.20
66598;DHT22;57424;53.128;6.406;2022-11-20T23:10:02;18.50;56.30
66598;DHT22;57424;53.128;6.406;2022-11-20T23:12:28;18.50;56.30
66598;DHT22;57424;53.128;6.406;2022-11-20T23:14:53;18.50;56.40
66598;DHT22;57424;53.128;6.406;2022-11-20T23:17:19;18.40;56.50
66598;DHT22;57424;53.128;6.406;2022-11-20T23:19:44;18.40;56.50
66598;DHT22;57424;53.128;6.406;2022-11-20T23:22:10;18.30;56.60
66598;DHT22;57424;53.128;6.406;2022-11-20T23:24:35;18.40;56.80
66598;DHT22;57424;53.128;6.406;2022-11-20T23:27:01;18.30;57.40
66598;DHT22;57424;53.128;6.406;2022-11-20T23:29:26;18.30;56.90
66598;DHT22;57424;53.128;6.406;2022-11-20T23:31:52;18.30;56.90
66598;DHT22;57424;53.128;6.406;2022-11-20T23:34:17;18.30;57.80
66598;DHT22;57424;53.128;6.406;2022-11-20T23:36:43;18.30;57.20
66598;DHT22;57424;53.128;6.406;2022-11-20T23:39:09;18.20;57.20
66598;DHT22;57424;53.128;6.406;2022-11-20T23:41:34;18.20;57.30
66598;DHT22;57424;53.128;6.406;2022-11-20T23:44:00;18.20;57.40
66598;DHT22;57424;53.128;6.406;2022-11-20T23:46:25;18.20;57.40
66598;DHT22;57424;53.128;6.406;2022-11-20T23:48:51;18.20;57.60
66598;DHT22;57424;53.128;6.406;2022-11-20T23:51:16;18.20;57.70
66598;DHT22;57424;53.128;6.406;2022-11-20T23:53:42;18.20;57.80
66598;DHT22;57424;53.128;6.406;2022-11-20T23:56:09;18.10;57.80
66598;DHT22;57424;53.128;6.406;2022-11-20T23:58:36;18.10;57.80
